createdAt,value
2023-01-17T00:00:17.861Z,94539.75
2023-01-17T00:04:38.371Z,94540.72
2023-01-17T00:08:59.582Z,94546.28
2023-01-17T00:13:04.286Z,94549.94
2023-01-17T00:17:07.171Z,94552.50
2023-01-17T00:21:27.291Z,94582.34
2023-01-17T00:25:52.575Z,94571.91
2023-01-17T00:29:54.124Z,94579.69
2023-01-17T00:33:55.647Z,94584.59
2023-01-17T00:38:01.283Z,94591.38
2023-01-17T00:42:04.361Z,94601.69
2023-01-17T00:46:25.522Z,94594.75
2023-01-17T00:50:45.989Z,94600.00
2023-01-17T00:55:06.490Z,94609.75
2023-01-17T00:59:27.859Z,94611.28
2023-01-17T01:03:48.091Z,94618.59
2023-01-17T01:08:08.684Z,94631.94
2023-01-17T01:12:28.651Z,94638.78
2023-01-17T01:16:50.037Z,94649.56
2023-01-17T01:21:10.169Z,94638.66
2023-01-17T01:25:30.118Z,94647.38
2023-01-17T01:29:50.476Z,94646.22
2023-01-17T01:33:54.847Z,94661.28
2023-01-17T01:37:57.472Z,94654.88
2023-01-17T01:42:00.099Z,94665.22
2023-01-17T01:46:02.800Z,94660.00
2023-01-17T01:50:11.406Z,94672.28
2023-01-17T01:54:19.094Z,94668.56
2023-01-17T01:58:23.886Z,94673.81
2023-01-17T02:02:27.211Z,94657.56
2023-01-17T02:06:36.006Z,94664.97
2023-01-17T02:10:40.692Z,94675.19
2023-01-17T02:14:43.284Z,94676.22
2023-01-17T02:18:54.578Z,94672.53
2023-01-17T02:23:27.441Z,94677.03
2023-01-17T02:27:40.317Z,94672.75
2023-01-17T02:31:51.534Z,94663.72
2023-01-17T02:36:05.166Z,94682.72
2023-01-17T02:40:14.204Z,94679.22
2023-01-17T02:44:19.742Z,94666.13
2023-01-17T02:48:29.287Z,94667.41
2023-01-17T02:52:47.382Z,94663.81
2023-01-17T02:57:02.357Z,94669.25
2023-01-17T03:01:14.189Z,94679.00
2023-01-17T03:05:24.198Z,94677.81
2023-01-17T03:09:29.012Z,94686.38
2023-01-17T03:13:32.611Z,94686.50
2023-01-17T03:17:35.384Z,94685.19
2023-01-17T03:21:39.395Z,94680.28
2023-01-17T03:25:42.049Z,94688.50
2023-01-17T03:29:44.657Z,94692.09
2023-01-17T03:33:47.679Z,94694.16
2023-01-17T03:37:51.797Z,94710.88
2023-01-17T03:41:54.398Z,94717.16
2023-01-17T03:46:03.658Z,94711.25
2023-01-17T03:50:06.946Z,94744.16
2023-01-17T03:54:11.057Z,94728.16
2023-01-17T03:58:13.758Z,94720.28
2023-01-17T04:02:16.429Z,94735.03
2023-01-17T04:06:19.134Z,94715.31
2023-01-17T04:10:23.391Z,94717.88
2023-01-17T04:14:26.109Z,94733.25
2023-01-17T04:18:28.817Z,94723.06
2023-01-17T04:22:32.244Z,94735.31
2023-01-17T04:26:36.396Z,94723.50
2023-01-17T04:30:39.104Z,94727.59
2023-01-17T04:34:42.012Z,94725.72
2023-01-17T04:38:45.103Z,94742.28
2023-01-17T04:42:49.489Z,94753.53
2023-01-17T04:46:52.110Z,94752.25
2023-01-17T04:51:00.630Z,94747.28
2023-01-17T04:55:03.435Z,94744.84
2023-01-17T04:59:07.653Z,94741.72
2023-01-17T05:03:10.426Z,94742.97
2023-01-17T05:07:14.205Z,94753.72
2023-01-17T05:11:17.898Z,94766.44
2023-01-17T05:15:21.905Z,94766.31
2023-01-17T05:19:25.036Z,94757.69
2023-01-17T05:23:27.694Z,94754.28
2023-01-17T05:27:30.615Z,94760.38
2023-01-17T05:31:34.632Z,94772.44
2023-01-17T05:35:37.575Z,94773.56
2023-01-17T05:39:40.253Z,94787.47
2023-01-17T05:43:42.927Z,94779.75
2023-01-17T05:47:47.799Z,94784.63
2023-01-17T05:51:50.721Z,94788.84
2023-01-17T05:55:53.370Z,94791.16
2023-01-17T05:59:56.215Z,94795.19
2023-01-17T06:04:00.252Z,94795.91
2023-01-17T06:08:02.894Z,94809.53
2023-01-17T06:12:06.360Z,94806.13
2023-01-17T06:16:09.655Z,94801.31
2023-01-17T06:20:14.424Z,94811.78
2023-01-17T06:24:17.091Z,94807.41
2023-01-17T06:28:21.840Z,94807.53
2023-01-17T06:32:24.489Z,94818.47
2023-01-17T06:36:28.465Z,94824.09
2023-01-17T06:40:31.468Z,94830.63
2023-01-17T06:44:34.162Z,94833.78
2023-01-17T06:48:36.849Z,94839.00
2023-01-17T06:52:40.888Z,94844.38
2023-01-17T06:56:44.027Z,94838.63
2023-01-17T07:00:46.871Z,94835.59
2023-01-17T07:04:49.783Z,94832.31
2023-01-17T07:08:53.727Z,94837.00
2023-01-17T07:12:59.668Z,94826.13
2023-01-17T07:17:02.308Z,94820.56
2023-01-17T07:21:05.227Z,94824.13
2023-01-17T07:25:10.991Z,94842.78
2023-01-17T07:29:13.671Z,94828.16
2023-01-17T07:33:16.808Z,94823.75
2023-01-17T07:37:20.033Z,94817.09
2023-01-17T07:41:24.185Z,94818.63
2023-01-17T07:45:26.783Z,94814.13
2023-01-17T07:49:29.452Z,94819.91
2023-01-17T07:53:32.961Z,94823.81
2023-01-17T07:57:36.988Z,94820.81
2023-01-17T08:01:40.073Z,94819.50
2023-01-17T08:05:43.503Z,94801.47
2023-01-17T08:09:49.677Z,94809.97
2023-01-17T08:13:57.295Z,94799.50
2023-01-17T08:18:00.230Z,94804.16
2023-01-17T08:22:02.866Z,94808.00
2023-01-17T08:26:05.796Z,94797.88
2023-01-17T08:30:11.046Z,94800.09
2023-01-17T08:34:14.184Z,94807.19
2023-01-17T08:38:16.879Z,94807.88
2023-01-17T08:42:19.612Z,94798.03
2023-01-17T08:46:24.970Z,94795.81
2023-01-17T08:50:28.033Z,94802.88
2023-01-17T08:54:30.709Z,94811.81
2023-01-17T08:58:35.947Z,94785.88
2023-01-17T09:02:39.940Z,94780.88
2023-01-17T09:06:45.208Z,94779.94
2023-01-17T09:10:47.836Z,94774.38
2023-01-17T09:14:50.511Z,94780.53
2023-01-17T09:18:56.381Z,94777.50
2023-01-17T09:22:59.064Z,94778.00
2023-01-17T09:27:01.700Z,94781.44
2023-01-17T09:31:08.946Z,94784.56
2023-01-17T09:35:13.584Z,94784.38
2023-01-17T09:39:16.395Z,94788.75
2023-01-17T09:43:28.954Z,94785.16
2023-01-17T09:47:35.713Z,94789.41
2023-01-17T09:51:40.275Z,94800.38
2023-01-17T09:55:48.701Z,94801.03
2023-01-17T10:00:04.315Z,94798.22
2023-01-17T10:04:24.073Z,94797.78
2023-01-17T10:08:46.975Z,94794.66
2023-01-17T10:12:59.241Z,94781.09
2023-01-17T10:17:10.437Z,94784.84
2023-01-17T10:21:22.482Z,94757.50
2023-01-17T10:25:47.382Z,94734.94
2023-01-17T10:29:51.864Z,94740.00
2023-01-17T10:33:55.732Z,94719.91
2023-01-17T10:38:01.519Z,94712.28
2023-01-17T10:42:15.061Z,94701.03
2023-01-17T10:46:22.767Z,94684.03
2023-01-17T10:50:29.049Z,94670.94
2023-01-17T10:54:51.416Z,94672.34
2023-01-17T10:59:06.207Z,94679.53
2023-01-17T11:03:11.698Z,94681.84
2023-01-17T11:07:17.472Z,94677.06
2023-01-17T11:11:22.893Z,94670.97
2023-01-17T11:15:27.273Z,94680.38
2023-01-17T11:19:32.471Z,94675.25
2023-01-17T11:23:35.188Z,94661.22
2023-01-17T11:27:41.926Z,94641.28
2023-01-17T11:31:46.009Z,94645.63
2023-01-17T11:35:48.698Z,94639.63
2023-01-17T11:39:51.331Z,94625.53
2023-01-17T11:43:56.006Z,94626.44
2023-01-17T11:48:14.398Z,94611.47
2023-01-17T11:52:23.778Z,94607.13
2023-01-17T11:56:32.940Z,94599.59
2023-01-17T12:00:46.054Z,94605.53
2023-01-17T12:05:00.608Z,94604.19
2023-01-17T12:09:13.702Z,94594.78
2023-01-17T12:13:48.329Z,94593.63
2023-01-17T12:18:09.884Z,94583.63
2023-01-17T12:22:35.260Z,94570.22
2023-01-17T12:26:40.713Z,94580.09
2023-01-17T12:30:57.714Z,94573.09
2023-01-17T12:35:05.787Z,94566.38
2023-01-17T12:39:14.322Z,94562.28
2023-01-17T12:43:24.702Z,94570.53
2023-01-17T12:47:27.432Z,94560.31
2023-01-17T12:51:34.353Z,94555.38
2023-01-17T12:55:42.800Z,94550.81
2023-01-17T12:59:49.103Z,94545.22
2023-01-17T13:04:03.254Z,94548.59
2023-01-17T13:08:16.660Z,94526.84
2023-01-17T13:12:22.205Z,94530.13
2023-01-17T13:16:32.672Z,94520.72
2023-01-17T13:20:48.732Z,94516.00
2023-01-17T13:25:00.394Z,94514.13
2023-01-17T13:29:10.986Z,94513.09
2023-01-17T13:33:29.319Z,94495.59
2023-01-17T13:37:46.962Z,94487.84
2023-01-17T13:41:54.038Z,94497.00
2023-01-17T13:46:01.327Z,94482.59
2023-01-17T13:50:04.761Z,94474.34
2023-01-17T13:54:08.647Z,94490.47
2023-01-17T13:58:29.274Z,94475.41
2023-01-17T14:02:42.171Z,94479.50
2023-01-17T14:06:45.363Z,94484.81
2023-01-17T14:10:49.766Z,94479.91
2023-01-17T14:14:56.780Z,94481.41
2023-01-17T14:19:01.083Z,94476.84
2023-01-17T14:23:16.444Z,94467.50
2023-01-17T14:27:25.043Z,94465.13
2023-01-17T14:31:28.911Z,94468.88
2023-01-17T14:35:35.736Z,94466.50
2023-01-17T14:39:45.799Z,94461.16
2023-01-17T14:43:50.703Z,94457.16
2023-01-17T14:47:54.055Z,94443.16
2023-01-17T14:52:06.749Z,94443.81
2023-01-17T14:56:16.896Z,94431.91
2023-01-17T15:00:21.504Z,94420.16
2023-01-17T15:04:26.770Z,94403.13
2023-01-17T15:08:36.434Z,94391.31
2023-01-17T15:12:39.354Z,94407.56
2023-01-17T15:16:43.419Z,94409.38
2023-01-17T15:20:54.234Z,94423.31
2023-01-17T15:24:59.286Z,94420.59
2023-01-17T15:29:05.698Z,94419.38
2023-01-17T15:33:17.119Z,94417.72
2023-01-17T15:37:27.676Z,94410.19
2023-01-17T15:41:35.023Z,94397.16
2023-01-17T15:45:37.718Z,94383.75
2023-01-17T15:49:51.014Z,94387.41
2023-01-17T15:53:53.715Z,94391.75
2023-01-17T15:57:58.079Z,94383.66
2023-01-17T16:02:00.781Z,94390.13
2023-01-17T16:06:04.522Z,94388.25
2023-01-17T16:10:13.165Z,94388.38
2023-01-17T16:14:17.748Z,94387.06
2023-01-17T16:18:23.939Z,94384.09
2023-01-17T16:22:26.959Z,94378.19
2023-01-17T16:26:30.681Z,94374.19
2023-01-17T16:30:34.976Z,94361.47
2023-01-17T16:34:37.663Z,94350.47
2023-01-17T16:38:40.283Z,94354.78
2023-01-17T16:42:43.107Z,94350.16
2023-01-17T16:46:47.087Z,94327.09
2023-01-17T16:50:52.854Z,94317.06
2023-01-17T16:54:55.630Z,94320.94
2023-01-17T16:58:58.286Z,94317.50
2023-01-17T17:03:02.603Z,94329.28
2023-01-17T17:07:05.304Z,94325.72
2023-01-17T17:11:13.163Z,94320.09
2023-01-17T17:15:15.967Z,94320.34
2023-01-17T17:19:20.880Z,94318.94
2023-01-17T17:23:23.629Z,94310.88
2023-01-17T17:27:27.745Z,94330.78
2023-01-17T17:31:30.648Z,94325.34
2023-01-17T17:35:35.963Z,94316.00
2023-01-17T17:39:38.780Z,94321.97
2023-01-17T17:43:41.507Z,94318.28
2023-01-17T17:47:44.571Z,94323.84
2023-01-17T17:51:48.772Z,94328.94
2023-01-17T17:55:53.637Z,94326.16
2023-01-17T17:59:59.545Z,94332.19
2023-01-17T18:04:04.123Z,94335.06
2023-01-17T18:08:08.491Z,94349.88
2023-01-17T18:12:11.176Z,94360.31
2023-01-17T18:16:16.146Z,94356.59
2023-01-17T18:20:18.876Z,94364.91
2023-01-17T18:24:24.499Z,94361.56
2023-01-17T18:28:27.616Z,94367.34
2023-01-17T18:32:30.632Z,94375.00
2023-01-17T18:36:35.089Z,94378.72
2023-01-17T18:40:39.067Z,94372.19
2023-01-17T18:44:41.827Z,94367.59
2023-01-17T18:48:44.927Z,94358.09
2023-01-17T18:52:47.596Z,94362.25
2023-01-17T18:56:52.629Z,94371.75
2023-01-17T19:00:55.659Z,94364.00
2023-01-17T19:04:58.356Z,94381.59
2023-01-17T19:09:01.688Z,94389.00
2023-01-17T19:13:05.972Z,94379.50
2023-01-17T19:17:08.635Z,94386.91
2023-01-17T19:21:14.096Z,94395.25
2023-01-17T19:25:17.031Z,94389.34
2023-01-17T19:29:22.473Z,94403.91
2023-01-17T19:33:25.167Z,94404.97
2023-01-17T19:37:28.049Z,94410.84
2023-01-17T19:41:31.093Z,94414.44
2023-01-17T19:45:35.213Z,94412.47
2023-01-17T19:49:40.086Z,94422.31
2023-01-17T19:53:42.994Z,94420.22
2023-01-17T19:57:45.664Z,94433.66
2023-01-17T20:01:49.959Z,94428.34
2023-01-17T20:05:57.039Z,94440.13
2023-01-17T20:09:59.688Z,94433.31
2023-01-17T20:14:02.969Z,94441.28
2023-01-17T20:18:07.119Z,94451.44
2023-01-17T20:22:09.805Z,94463.84
2023-01-17T20:26:12.833Z,94447.06
2023-01-17T20:30:20.577Z,94461.28
2023-01-17T20:34:25.965Z,94453.44
2023-01-17T20:38:30.424Z,94468.34
2023-01-17T20:42:36.679Z,94481.97
2023-01-17T20:46:41.287Z,94462.63
2023-01-17T20:50:45.435Z,94452.56
2023-01-17T20:54:49.642Z,94458.94
2023-01-17T20:58:52.804Z,94459.88
2023-01-17T21:02:55.713Z,94452.91
2023-01-17T21:06:59.701Z,94446.06
2023-01-17T21:11:03.296Z,94432.66
2023-01-17T21:15:06.961Z,94423.25
2023-01-17T21:19:11.893Z,94430.66
2023-01-17T21:23:18.852Z,94417.69
2023-01-17T21:27:21.644Z,94426.25
2023-01-17T21:31:26.827Z,94438.53
2023-01-17T21:35:30.316Z,94437.00
2023-01-17T21:39:34.343Z,94438.94
2023-01-17T21:43:37.073Z,94442.38
2023-01-17T21:47:44.472Z,94451.84
2023-01-17T21:52:04.622Z,94462.81
2023-01-17T21:56:30.098Z,94468.44
2023-01-17T22:00:33.609Z,94451.53
2023-01-17T22:04:36.255Z,94461.25
2023-01-17T22:08:39.077Z,94461.84
2023-01-17T22:12:43.051Z,94461.03
2023-01-17T22:16:45.965Z,94464.38
2023-01-17T22:20:49.569Z,94471.41
2023-01-17T22:24:52.181Z,94472.56
2023-01-17T22:28:56.287Z,94466.09
2023-01-17T22:32:59.372Z,94460.91
2023-01-17T22:37:03.970Z,94453.38
2023-01-17T22:41:08.713Z,94450.50
2023-01-17T22:45:13.379Z,94453.16
2023-01-17T22:49:16.833Z,94457.44
2023-01-17T22:53:19.454Z,94471.69
2023-01-17T22:57:23.140Z,94481.63
2023-01-17T23:01:29.545Z,94480.38
2023-01-17T23:05:32.195Z,94488.09
2023-01-17T23:09:34.897Z,94482.88
2023-01-17T23:13:38.656Z,94479.28
2023-01-17T23:18:00.104Z,94474.75
2023-01-17T23:22:22.298Z,94474.56
2023-01-17T23:26:24.916Z,94477.56
2023-01-17T23:30:30.184Z,94469.38
2023-01-17T23:34:34.182Z,94472.63
2023-01-17T23:38:40.581Z,94461.41
2023-01-17T23:43:00.625Z,94456.91
2023-01-17T23:47:03.246Z,94448.56
2023-01-17T23:51:08.152Z,94451.69
2023-01-17T23:55:11.074Z,94459.66
2023-01-17T23:59:13.952Z,94458.47
